Terminal Aerodrome Forecast
Issued by NWS

Home | Current Version | Previous Version | Graphics & Text | Print | Product List | Glossary On
Versions: 1 2 3 4 5 6 7 8 9 10 11 12 13 14 15
000
FTUS43 KBIS 161100
TAFJMS
TAF
KJMS 161135Z 1612/1712 08020G26KT P6SM OVC009
     FM161400 07022G32KT 2SM -SN OVC015
      TEMPO 1615/1618 1SM -SN OVC009
     FM162000 04020G26KT P6SM OVC025
     FM170200 03013KT P6SM BKN035=

USA.gov is the U.S. government's official web portal to all federal, state and local government web resources and services.